Time;durP1;ratioP1;P1;durP2;ratioP2;P2;SDS_P1;SDS_P2;PMS_P1;PMS_P2;Temp;Humidity;BMP_temperature;BMP_pressure;BME280_temperature;BME280_humidity;BME280_pressure;Samples;Min_cycle;Max_cycle;Signal;HPM_P1;HPM_P2
2022/03/15 00:01:17;;;;;;;;;;;;;;;6.78;32.35;99621.09;1634676;87;20203;-82
2022/03/15 00:03:43;;;;;;;;;;;;;;;6.82;32.37;99620.55;1633027;87;22161;-82
2022/03/15 00:06:09;;;;;;;;;;;;;;;6.83;32.39;99625.67;1632274;87;26043;-82
2022/03/15 00:08:35;;;;;;;;;;;;;;;6.83;32.40;99626.13;1630359;87;24433;-82
2022/03/15 00:11:05;;;;;;;;;;;;;;;6.78;32.39;99623.70;1634643;87;20310;-82
2022/03/15 00:13:30;;;;;;;;;;;;;;;6.80;32.40;99622.34;1633568;87;25130;-82
2022/03/15 00:16:00;;;;;;;;;;;;;;;6.81;32.41;99616.25;1630683;87;22156;-83
2022/03/15 00:18:30;;;;;;;;;;;;;;;6.78;32.41;99608.53;1635315;87;27393;-82
2022/03/15 00:20:57;;;;;;;;;;;;;;;6.76;32.43;99609.91;1631553;87;25183;-82
2022/03/15 00:23:24;;;;;;;;;;;;;;;6.75;32.43;99617.31;1635935;87;20280;-82
2022/03/15 00:25:50;;;;;;;;;;;;;;;6.72;32.43;99613.50;1635622;87;24990;-82
2022/03/15 00:28:16;;;;;;;;;;;;;;;6.70;32.45;99617.93;1633005;87;21993;-82
2022/03/15 00:30:42;;;;;;;;;;;;;;;6.63;32.44;99623.79;1632538;87;26022;-82
2022/03/15 00:33:09;;;;;;;;;;;;;;;6.55;32.49;99629.69;1632856;87;24422;-82
2022/03/15 00:35:35;;;;;;;;;;;;;;;6.49;32.50;99633.80;1632065;87;20507;-82
2022/03/15 00:38:02;;;;;;;;;;;;;;;6.41;32.56;99631.08;1631879;87;25594;-82
2022/03/15 00:40:28;;;;;;;;;;;;;;;6.37;32.64;99625.14;1634740;87;22093;-83
2022/03/15 00:42:54;;;;;;;;;;;;;;;6.34;32.72;99617.43;1636065;87;26050;-83
2022/03/15 00:45:25;;;;;;;;;;;;;;;6.29;32.79;99607.19;1653948;86;25124;-83
2022/03/15 00:47:51;;;;;;;;;;;;;;;6.25;32.84;99600.85;1612840;87;20300;-83
2022/03/15 00:50:17;;;;;;;;;;;;;;;6.28;32.94;99604.19;1638343;85;24976;-83
2022/03/15 00:52:44;;;;;;;;;;;;;;;6.23;32.99;99606.09;1655795;86;22199;-83
2022/03/15 00:55:11;;;;;;;;;;;;;;;6.27;33.00;99610.28;1653881;85;26042;-83
2022/03/15 00:57:46;;;;;;;;;;;;;;;6.24;33.00;99607.80;1649521;86;24421;-82
2022/03/15 01:00:14;;;;;;;;;;;;;;;6.17;33.02;99608.04;1652819;85;20223;-82
2022/03/15 01:02:40;;;;;;;;;;;;;;;6.16;33.13;99610.27;1652814;86;25030;-82
2022/03/15 01:05:07;;;;;;;;;;;;;;;6.16;33.21;99608.52;1652806;86;21960;-82
2022/03/15 01:07:33;;;;;;;;;;;;;;;6.10;33.28;99608.72;1652042;86;26018;-82
2022/03/15 01:09:59;;;;;;;;;;;;;;;6.09;33.35;99604.41;1653797;86;25127;-83
2022/03/15 01:12:26;;;;;;;;;;;;;;;6.09;33.42;99604.86;1657548;85;20284;-83
2022/03/15 01:14:52;;;;;;;;;;;;;;;6.05;33.49;99598.92;1655340;86;25144;-83
2022/03/15 01:17:18;;;;;;;;;;;;;;;6.07;33.54;99601.00;1653881;85;22094;-82
2022/03/15 01:19:44;;;;;;;;;;;;;;;6.09;33.58;99590.13;1652235;86;26001;-83
2022/03/15 01:22:10;;;;;;;;;;;;;;;6.09;33.58;99603.12;1650468;86;24595;-82
2022/03/15 01:24:36;;;;;;;;;;;;;;;6.02;33.59;99599.45;1657954;85;20340;-83
2022/03/15 01:27:02;;;;;;;;;;;;;;;5.97;33.63;99595.72;1656482;86;24621;-83
2022/03/15 01:29:29;;;;;;;;;;;;;;;5.88;33.61;99610.31;1661277;86;21893;-83
2022/03/15 01:31:55;;;;;;;;;;;;;;;5.83;33.67;99605.69;1655041;86;26039;-83
2022/03/15 01:34:22;;;;;;;;;;;;;;;5.75;33.71;99608.52;1653479;85;24608;-83
2022/03/15 01:36:49;;;;;;;;;;;;;;;5.61;33.77;99602.91;1655007;86;20470;-83
2022/03/15 01:39:15;;;;;;;;;;;;;;;5.48;33.83;99601.13;1656528;86;24976;-82
2022/03/15 01:41:44;;;;;;;;;;;;;;;5.44;33.91;99587.00;1649300;86;22004;-82
2022/03/15 01:44:20;;;;;;;;;;;;;;;5.52;33.99;99594.53;1625683;85;26023;-83
2022/03/15 01:46:47;;;;;;;;;;;;;;;5.55;34.06;99585.38;1617611;88;24505;-83
2022/03/15 01:49:14;;;;;;;;;;;;;;;5.56;34.11;99587.08;1582970;90;20165;-82
2022/03/15 01:51:41;;;;;;;;;;;;;;;5.57;34.14;99588.30;1582904;90;25151;-82
2022/03/15 01:54:08;;;;;;;;;;;;;;;5.54;34.10;99588.86;1583413;90;21982;-82
2022/03/15 01:56:35;;;;;;;;;;;;;;;5.54;34.11;99586.27;1617254;88;26127;-83
2022/03/15 01:59:01;;;;;;;;;;;;;;;5.47;34.10;99582.55;1621223;88;24468;-82
2022/03/15 02:01:27;;;;;;;;;;;;;;;5.40;34.14;99584.11;1619524;88;20472;-82
2022/03/15 02:03:54;;;;;;;;;;;;;;;5.32;34.17;99581.73;1622291;88;25035;-82
2022/03/15 02:06:20;;;;;;;;;;;;;;;5.29;34.19;99589.59;1623869;88;22294;-82
2022/03/15 02:08:46;;;;;;;;;;;;;;;5.22;34.17;99586.80;1623230;88;25927;-82
2022/03/15 02:11:12;;;;;;;;;;;;;;;5.20;34.18;99592.47;1622338;88;24646;-82
2022/03/15 02:13:38;;;;;;;;;;;;;;;5.18;34.19;99592.98;1621939;88;20480;-82
2022/03/15 02:16:05;;;;;;;;;;;;;;;5.18;34.20;99597.32;1621942;88;24980;-82
2022/03/15 02:18:31;;;;;;;;;;;;;;;5.15;34.26;99594.80;1622433;86;22084;-82
2022/03/15 02:20:58;;;;;;;;;;;;;;;5.18;34.29;99590.83;1619566;87;26702;-82
2022/03/15 02:23:23;;;;;;;;;;;;;;;5.21;34.31;99583.80;1624088;88;24632;-82
2022/03/15 02:25:50;;;;;;;;;;;;;;;5.23;34.34;99582.02;1619913;88;20315;-82
2022/03/15 02:28:17;;;;;;;;;;;;;;;5.28;34.36;99592.25;1623086;88;25074;-82
2022/03/15 02:30:43;;;;;;;;;;;;;;;5.33;34.37;99586.03;1619211;88;22144;-82
2022/03/15 02:33:09;;;;;;;;;;;;;;;5.38;34.36;99591.93;1600409;88;25896;-82
2022/03/15 02:35:35;;;;;;;;;;;;;;;5.41;34.37;99597.02;1621760;88;24480;-82
2022/03/15 02:38:01;;;;;;;;;;;;;;;5.46;34.39;99604.66;1622505;88;20288;-82
2022/03/15 02:40:27;;;;;;;;;;;;;;;5.49;34.39;99607.17;1623317;88;25035;-82
2022/03/15 02:42:53;;;;;;;;;;;;;;;5.53;34.45;99603.58;1622692;86;22049;-81
2022/03/15 02:45:19;;;;;;;;;;;;;;;5.58;34.49;99606.89;1623272;88;26043;-82
2022/03/15 02:47:48;;;;;;;;;;;;;;;5.65;34.52;99613.59;1625178;88;25147;-82
2022/03/15 02:50:13;;;;;;;;;;;;;;;5.63;34.54;99619.27;1620876;87;20333;-82
2022/03/15 02:52:39;;;;;;;;;;;;;;;5.61;34.55;99617.64;1624295;88;20759;-82
2022/03/15 02:55:06;;;;;;;;;;;;;;;5.54;34.60;99620.02;1625670;87;21977;-82
2022/03/15 02:57:32;;;;;;;;;;;;;;;5.38;34.67;99621.78;1625411;88;26156;-82
2022/03/15 03:00:02;;;;;;;;;;;;;;;5.00;34.77;99621.60;1625140;88;24444;-82
2022/03/15 03:02:28;;;;;;;;;;;;;;;4.68;34.88;99617.75;1623811;88;20463;-83
2022/03/15 03:04:54;;;;;;;;;;;;;;;4.47;34.95;99620.92;1603811;88;25118;-83
2022/03/15 03:07:20;;;;;;;;;;;;;;;4.32;35.12;99623.88;1622849;88;21983;-82
2022/03/15 03:09:47;;;;;;;;;;;;;;;4.20;35.19;99633.67;1624739;88;25860;-82
2022/03/15 03:12:15;;;;;;;;;;;;;;;4.17;35.32;99632.91;1622465;87;24447;-82
2022/03/15 03:14:43;;;;;;;;;;;;;;;4.21;35.42;99637.97;1625609;87;20480;-82
2022/03/15 03:17:09;;;;;;;;;;;;;;;4.30;35.52;99638.64;1624262;88;25011;-83
2022/03/15 03:19:38;;;;;;;;;;;;;;;4.34;35.62;99646.30;1622792;88;20284;-83
2022/03/15 03:22:03;;;;;;;;;;;;;;;4.44;35.70;99647.75;1625333;87;26219;-83
2022/03/15 03:24:29;;;;;;;;;;;;;;;4.47;35.84;99643.77;1624247;88;24539;-83
2022/03/15 03:27:01;;;;;;;;;;;;;;;4.44;35.91;99639.12;1624129;87;20314;-82
2022/03/15 03:29:29;;;;;;;;;;;;;;;4.44;35.98;99638.69;1626451;88;25002;-83
2022/03/15 03:31:55;;;;;;;;;;;;;;;4.52;36.05;99639.80;1621726;88;21836;-83
2022/03/15 03:34:21;;;;;;;;;;;;;;;4.60;36.14;99635.23;1625547;88;26354;-82
2022/03/15 03:36:47;;;;;;;;;;;;;;;4.59;36.16;99633.53;1626881;88;24639;-82
2022/03/15 03:39:14;;;;;;;;;;;;;;;4.60;36.22;99636.54;1623243;88;20242;-82
2022/03/15 03:41:40;;;;;;;;;;;;;;;4.61;36.25;99636.50;1602549;88;24661;-82
2022/03/15 03:44:06;;;;;;;;;;;;;;;4.57;36.26;99632.75;1641189;85;22040;-82
2022/03/15 03:46:32;;;;;;;;;;;;;;;4.51;36.25;99629.02;1631672;87;26299;-82
2022/03/15 03:48:59;;;;;;;;;;;;;;;4.48;36.26;99629.93;1621775;86;24637;-82
2022/03/15 03:51:25;;;;;;;;;;;;;;;4.41;36.25;99624.52;1630609;87;20661;-82
2022/03/15 03:53:51;;;;;;;;;;;;;;;4.39;36.24;99626.30;1653526;84;25057;-82
2022/03/15 03:56:17;;;;;;;;;;;;;;;4.35;36.25;99616.91;1645119;87;23450;-82
2022/03/15 03:58:45;;;;;;;;;;;;;;;4.34;36.27;99616.49;1651111;87;25461;-82
2022/03/15 04:01:14;;;;;;;;;;;;;;;4.38;36.32;99608.19;1652070;87;24531;-82
2022/03/15 04:03:40;;;;;;;;;;;;;;;4.40;36.34;99606.41;1651055;87;20326;-82
2022/03/15 04:06:06;;;;;;;;;;;;;;;4.42;36.34;99609.35;1650837;87;20246;-82
2022/03/15 04:08:32;;;;;;;;;;;;;;;4.44;36.37;99614.06;1653098;86;21951;-82
2022/03/15 04:10:58;;;;;;;;;;;;;;;4.46;36.39;99608.84;1631858;87;26034;-83
2022/03/15 04:13:26;;;;;;;;;;;;;;;4.46;36.42;99607.11;1658595;85;25325;-83
2022/03/15 04:15:53;;;;;;;;;;;;;;;4.48;36.45;99605.75;1645207;87;20226;-83
2022/03/15 04:18:20;;;;;;;;;;;;;;;4.49;36.48;99607.45;1645217;87;25775;-82
2022/03/15 04:20:46;;;;;;;;;;;;;;;4.51;36.48;99616.05;1645311;86;22270;-82
2022/03/15 04:23:12;;;;;;;;;;;;;;;4.56;36.51;99608.56;1650678;87;26063;-82
2022/03/15 04:25:39;;;;;;;;;;;;;;;4.62;36.55;99606.25;1639000;87;24428;-82
2022/03/15 04:28:05;;;;;;;;;;;;;;;4.68;36.55;99603.94;1651624;87;20506;-82
2022/03/15 04:30:32;;;;;;;;;;;;;;;4.71;36.58;99605.14;1635571;87;24809;-82
2022/03/15 04:32:58;;;;;;;;;;;;;;;4.76;36.59;99607.16;1651372;86;22079;-82
2022/03/15 04:35:25;;;;;;;;;;;;;;;4.80;36.63;99607.50;1650945;87;26083;-82
2022/03/15 04:37:52;;;;;;;;;;;;;;;4.83;36.64;99615.17;1649487;87;24528;-82
2022/03/15 04:40:18;;;;;;;;;;;;;;;4.85;36.65;99613.41;1652148;87;20574;-82
2022/03/15 04:42:45;;;;;;;;;;;;;;;4.86;36.67;99617.23;1651306;87;25172;-81
2022/03/15 04:45:12;;;;;;;;;;;;;;;4.88;36.73;99606.81;1634281;87;22169;-81
2022/03/15 04:47:38;;;;;;;;;;;;;;;4.88;36.76;99610.70;1632256;86;26130;-82
2022/03/15 04:50:05;;;;;;;;;;;;;;;4.87;36.76;99611.16;1631718;86;25324;-81
2022/03/15 04:52:34;;;;;;;;;;;;;;;4.83;36.78;99610.84;1632623;87;20322;-82
2022/03/15 04:55:01;;;;;;;;;;;;;;;4.78;36.81;99619.64;1634994;87;24985;-83
2022/03/15 04:57:27;;;;;;;;;;;;;;;4.64;36.85;99624.74;1634103;87;22011;-82
2022/03/15 04:59:53;;;;;;;;;;;;;;;4.56;36.91;99625.41;1632719;87;26063;-83
2022/03/15 05:02:19;;;;;;;;;;;;;;;4.37;37.00;99629.80;1653488;86;24505;-82
2022/03/15 05:04:45;;;;;;;;;;;;;;;4.28;37.11;99624.86;1611731;89;20358;-82
2022/03/15 05:07:11;;;;;;;;;;;;;;;4.25;37.19;99630.98;1632610;87;20283;-82
2022/03/15 05:11:06;;;;;;;;;;;;;;;4.22;37.24;99621.98;1637555;87;21994;-83
2022/03/15 05:12:09;;;;;;;;;;;;;;;4.33;37.33;99623.00;1642040;86;25851;-82
2022/03/15 05:14:35;;;;;;;;;;;;;;;4.44;37.37;99626.17;1639673;87;24561;-82
2022/03/15 05:17:01;;;;;;;;;;;;;;;4.49;37.40;99628.19;1643093;87;20582;-82
2022/03/15 05:19:27;;;;;;;;;;;;;;;4.58;37.43;99628.80;1634617;87;24956;-82
2022/03/15 05:21:54;;;;;;;;;;;;;;;4.61;37.47;99626.14;1637834;87;22143;-82
2022/03/15 05:24:20;;;;;;;;;;;;;;;4.66;37.50;99626.45;1639783;87;25977;-82
2022/03/15 05:26:46;;;;;;;;;;;;;;;4.70;37.54;99628.06;1637589;87;24455;-83
2022/03/15 05:29:12;;;;;;;;;;;;;;;4.76;37.56;99623.56;1636801;86;20233;-83
2022/03/15 05:31:39;;;;;;;;;;;;;;;4.76;37.58;99625.30;1635450;87;24963;-82
2022/03/15 05:34:05;;;;;;;;;;;;;;;4.83;37.61;99622.95;1637093;87;22038;-82
2022/03/15 05:36:31;;;;;;;;;;;;;;;4.87;37.68;99620.23;1653765;86;25945;-83
2022/03/15 05:38:57;;;;;;;;;;;;;;;4.93;37.70;99617.91;1635878;87;24518;-83
2022/03/15 05:41:23;;;;;;;;;;;;;;;4.98;37.72;99618.63;1637396;86;20241;-82
2022/03/15 05:43:49;;;;;;;;;;;;;;;4.99;37.75;99622.93;1636015;87;25037;-82
2022/03/15 05:46:16;;;;;;;;;;;;;;;5.03;37.78;99624.53;1631003;87;22042;-82
2022/03/15 05:48:43;;;;;;;;;;;;;;;5.06;37.86;99627.06;1630163;87;27039;-82
2022/03/15 05:51:09;;;;;;;;;;;;;;;5.12;37.89;99621.70;1631452;87;25249;-83
2022/03/15 05:53:35;;;;;;;;;;;;;;;5.18;37.89;99621.97;1630308;87;20251;-82
2022/03/15 05:56:01;;;;;;;;;;;;;;;5.24;37.90;99623.91;1655727;85;25131;-83
2022/03/15 05:58:27;;;;;;;;;;;;;;;5.30;37.90;99618.99;1612975;89;20930;-83
2022/03/15 06:00:55;;;;;;;;;;;;;;;5.37;37.92;99621.38;1633904;87;26351;-83
2022/03/15 06:03:21;;;;;;;;;;;;;;;5.41;37.94;99615.19;1652027;86;24632;-83
2022/03/15 06:05:47;;;;;;;;;;;;;;;5.45;37.95;99619.86;1650824;86;20239;-83
2022/03/15 06:08:14;;;;;;;;;;;;;;;5.46;37.95;99613.74;1658078;85;25599;-82
2022/03/15 06:10:42;;;;;;;;;;;;;;;5.46;37.97;99621.53;1656480;85;22820;-83
2022/03/15 06:13:10;;;;;;;;;;;;;;;5.47;38.00;99615.00;1650504;86;27019;-83
2022/03/15 06:15:36;;;;;;;;;;;;;;;5.50;38.03;99615.82;1655350;85;25128;-83
2022/03/15 06:18:03;;;;;;;;;;;;;;;5.56;38.07;99613.04;1654457;86;20877;-83
2022/03/15 06:20:33;;;;;;;;;;;;;;;5.67;38.11;99610.96;1654529;85;20244;-83
2022/03/15 06:22:59;;;;;;;;;;;;;;;5.72;38.12;99613.81;1653905;86;22030;-83
2022/03/15 06:25:25;;;;;;;;;;;;;;;5.76;38.17;99615.86;1653383;85;26004;-83
2022/03/15 06:27:52;;;;;;;;;;;;;;;5.77;38.18;99604.13;1647505;86;24549;-85
2022/03/15 06:30:19;;;;;;;;;;;;;;;5.79;38.23;99613.15;1654130;86;20256;-84
2022/03/15 06:32:46;;;;;;;;;;;;;;;5.84;38.26;99613.84;1653378;85;24977;-83
2022/03/15 06:35:13;;;;;;;;;;;;;;;5.91;38.29;99603.70;1650665;86;22064;-83
2022/03/15 06:37:43;;;;;;;;;;;;;;;5.94;38.30;99604.92;1652154;86;26167;-83
2022/03/15 06:40:11;;;;;;;;;;;;;;;6.00;38.30;99615.09;1657005;85;24523;-83
2022/03/15 06:42:40;;;;;;;;;;;;;;;6.06;38.30;99606.25;1651627;86;20496;-83
2022/03/15 06:45:07;;;;;;;;;;;;;;;6.12;38.34;99610.80;1649240;85;24991;-83
2022/03/15 06:47:34;;;;;;;;;;;;;;;6.21;38.41;99610.52;1650174;86;22159;-83
2022/03/15 06:50:00;;;;;;;;;;;;;;;6.28;38.46;99607.23;1648969;86;25698;-83
2022/03/15 06:52:26;;;;;;;;;;;;;;;6.37;38.44;99611.29;1651097;86;24490;-83
2022/03/15 06:54:52;;;;;;;;;;;;;;;6.45;38.42;99612.71;1654048;86;20294;-83
2022/03/15 06:57:18;;;;;;;;;;;;;;;6.54;38.44;99610.27;1653293;85;24950;-82
2022/03/15 06:59:44;;;;;;;;;;;;;;;6.65;38.50;99605.54;1652853;86;22043;-83
2022/03/15 07:02:11;;;;;;;;;;;;;;;6.75;38.49;99604.75;1654423;86;26041;-83
2022/03/15 07:04:37;;;;;;;;;;;;;;;6.83;38.50;99606.61;1651796;86;24631;-83
2022/03/15 07:07:03;;;;;;;;;;;;;;;6.95;38.49;99611.38;1651668;86;20297;-83
2022/03/15 07:09:29;;;;;;;;;;;;;;;7.04;38.52;99605.83;1652789;86;20701;-83
2022/03/15 07:11:55;;;;;;;;;;;;;;;7.14;38.52;99610.67;1652674;86;22058;-83
2022/03/15 07:14:21;;;;;;;;;;;;;;;7.27;38.52;99612.79;1651768;86;26093;-83
2022/03/15 07:16:50;;;;;;;;;;;;;;;7.35;38.51;99606.86;1653356;86;24485;-83
2022/03/15 07:19:16;;;;;;;;;;;;;;;7.46;38.51;99600.78;1651844;86;20222;-83
2022/03/15 07:21:42;;;;;;;;;;;;;;;7.57;38.54;99605.13;1651861;86;20328;-82
2022/03/15 07:24:08;;;;;;;;;;;;;;;7.71;38.58;99597.61;1650165;85;21962;-82
2022/03/15 07:26:34;;;;;;;;;;;;;;;7.83;38.57;99599.73;1653416;86;25998;-82
2022/03/15 07:29:02;;;;;;;;;;;;;;;7.95;38.60;99599.70;1651397;85;24491;-82
2022/03/15 07:31:29;;;;;;;;;;;;;;;8.09;38.60;99604.33;1652498;85;20193;-82
2022/03/15 07:33:56;;;;;;;;;;;;;;;8.19;38.59;99600.42;1650936;86;25594;-82
2022/03/15 07:36:22;;;;;;;;;;;;;;;8.29;38.58;99596.06;1651428;86;22659;-82
2022/03/15 07:38:48;;;;;;;;;;;;;;;8.42;38.58;99599.50;1650026;86;21101;-82
2022/03/15 07:41:16;;;;;;;;;;;;;;;8.53;38.54;99592.06;1653574;85;24648;-83
2022/03/15 07:43:43;;;;;;;;;;;;;;;8.65;38.54;99598.91;1652363;85;20880;-83
2022/03/15 07:46:09;;;;;;;;;;;;;;;8.77;38.51;99604.06;1650483;86;25030;-83
2022/03/15 07:48:37;;;;;;;;;;;;;;;8.82;38.54;99596.87;1654515;86;22706;-83
2022/03/15 07:51:03;;;;;;;;;;;;;;;8.92;38.54;99598.16;1653097;85;25868;-83
2022/03/15 07:53:29;;;;;;;;;;;;;;;9.01;38.55;99600.34;1652584;86;20256;-83
2022/03/15 07:55:56;;;;;;;;;;;;;;;9.13;38.55;99602.87;1655139;86;20286;-83
2022/03/15 07:58:22;;;;;;;;;;;;;;;9.24;38.54;99605.84;1644924;86;24964;-83
2022/03/15 08:00:48;;;;;;;;;;;;;;;9.31;38.51;99594.20;1654613;86;22052;-83
2022/03/15 08:03:14;;;;;;;;;;;;;;;9.42;38.48;99593.70;1651608;86;25981;-83
2022/03/15 08:05:41;;;;;;;;;;;;;;;9.54;38.46;99590.06;1652059;86;24669;-83
2022/03/15 08:08:10;;;;;;;;;;;;;;;9.63;38.43;99592.23;1651000;86;20223;-83
2022/03/15 08:10:36;;;;;;;;;;;;;;;9.73;38.41;99585.25;1652194;86;25164;-83
2022/03/15 08:13:02;;;;;;;;;;;;;;;9.81;38.32;99580.52;1652935;86;20924;-83
2022/03/15 08:15:29;;;;;;;;;;;;;;;9.88;38.26;99577.51;1650764;86;26052;-83
2022/03/15 08:17:55;;;;;;;;;;;;;;;9.98;38.26;99575.31;1652388;86;25015;-83
2022/03/15 08:20:21;;;;;;;;;;;;;;;10.08;38.24;99576.09;1653563;86;20278;-83
2022/03/15 08:22:47;;;;;;;;;;;;;;;10.17;38.19;99574.80;1654970;86;25025;-83
2022/03/15 08:25:13;;;;;;;;;;;;;;;10.24;38.14;99574.89;1652888;86;22032;-83
2022/03/15 08:27:39;;;;;;;;;;;;;;;10.32;38.17;99565.33;1650187;86;26097;-83
2022/03/15 08:30:06;;;;;;;;;;;;;;;10.38;38.16;99565.02;1654765;86;24573;-83
2022/03/15 08:32:32;;;;;;;;;;;;;;;10.44;38.15;99566.87;1652242;86;20523;-83
2022/03/15 08:34:58;;;;;;;;;;;;;;;10.54;38.12;99562.46;1652238;86;25140;-83
2022/03/15 08:37:24;;;;;;;;;;;;;;;10.62;38.09;99557.23;1652548;86;20304;-83
2022/03/15 08:39:50;;;;;;;;;;;;;;;10.70;38.07;99552.42;1649922;86;26053;-83
2022/03/15 08:42:16;;;;;;;;;;;;;;;10.75;38.05;99550.87;1654130;86;24411;-82
2022/03/15 08:44:42;;;;;;;;;;;;;;;10.85;38.03;99553.41;1654516;85;20599;-83
2022/03/15 08:47:08;;;;;;;;;;;;;;;10.89;38.01;99547.08;1652090;86;25664;-83
2022/03/15 08:49:34;;;;;;;;;;;;;;;10.97;37.97;99542.72;1649449;86;22153;-83
2022/03/15 08:52:01;;;;;;;;;;;;;;;11.08;37.94;99537.28;1651484;85;26155;-83
2022/03/15 08:54:27;;;;;;;;;;;;;;;11.16;37.90;99532.48;1651557;85;25333;-83
2022/03/15 08:56:53;;;;;;;;;;;;;;;11.21;37.86;99532.23;1653301;85;20227;-83
2022/03/15 08:59:20;;;;;;;;;;;;;;;11.27;37.87;99530.13;1653653;85;25048;-83
2022/03/15 09:01:46;;;;;;;;;;;;;;;11.34;37.84;99528.02;1653654;85;21936;-83
2022/03/15 09:04:12;;;;;;;;;;;;;;;11.40;37.81;99515.04;1651778;86;26063;-82
2022/03/15 09:06:39;;;;;;;;;;;;;;;11.47;37.81;99518.52;1653292;85;24493;-83
2022/03/15 09:09:10;;;;;;;;;;;;;;;11.54;37.71;99513.32;1652669;86;20503;-83
2022/03/15 09:11:33;;;;;;;;;;;;;;;11.62;37.67;99508.94;1652664;86;25009;-83
2022/03/15 09:13:59;;;;;;;;;;;;;;;11.66;37.68;99511.32;1656240;86;22029;-83
2022/03/15 09:16:25;;;;;;;;;;;;;;;11.69;37.64;99505.89;1655852;86;25997;-83
2022/03/15 09:18:51;;;;;;;;;;;;;;;11.76;37.55;99510.36;1656384;86;24438;-83
2022/03/15 09:21:22;;;;;;;;;;;;;;;11.81;37.55;99503.06;1654605;86;21447;-83
2022/03/15 09:23:45;;;;;;;;;;;;;;;11.86;37.46;99499.70;1651007;86;25801;-83
2022/03/15 09:26:12;;;;;;;;;;;;;;;11.94;37.49;99500.12;1654434;86;20249;-83
2022/03/15 09:28:38;;;;;;;;;;;;;;;11.92;37.37;99496.73;1652807;85;26021;-82
2022/03/15 09:31:04;;;;;;;;;;;;;;;11.97;37.37;99485.50;1657114;86;24483;-83
2022/03/15 09:33:30;;;;;;;;;;;;;;;12.08;37.40;99487.02;1652816;86;20529;-83
2022/03/15 09:35:57;;;;;;;;;;;;;;;12.22;37.36;99484.06;1655683;86;24943;-83
2022/03/15 09:38:24;;;;;;;;;;;;;;;12.30;37.31;99481.80;1654835;86;21957;-83
2022/03/15 09:40:50;;;;;;;;;;;;;;;12.34;37.28;99477.58;1652107;85;26002;-83
2022/03/15 09:43:18;;;;;;;;;;;;;;;12.38;37.23;99478.27;1653072;86;24458;-83
2022/03/15 09:45:45;;;;;;;;;;;;;;;12.47;37.15;99477.70;1653681;85;20282;-83
2022/03/15 09:48:15;;;;;;;;;;;;;;;12.54;37.10;99477.70;1643628;85;25003;-83
2022/03/15 09:50:42;;;;;;;;;;;;;;;12.63;37.03;99478.91;1647171;86;24031;-83
2022/03/15 09:53:09;;;;;;;;;;;;;;;12.68;37.00;99471.59;1644729;86;26044;-83
2022/03/15 09:55:35;;;;;;;;;;;;;;;12.70;36.98;99465.78;1646981;86;24547;-83
2022/03/15 09:58:01;;;;;;;;;;;;;;;12.73;36.97;99459.86;1645084;86;20805;-83
2022/03/15 10:00:27;;;;;;;;;;;;;;;12.84;36.96;99459.19;1644968;86;24971;-83
2022/03/15 10:02:54;;;;;;;;;;;;;;;12.92;36.91;99457.78;1649041;86;20387;-83
2022/03/15 10:05:20;;;;;;;;;;;;;;;12.96;36.88;99448.76;1644784;86;26132;-83
2022/03/15 10:07:46;;;;;;;;;;;;;;;13.03;36.88;99447.91;1608784;89;24505;-83
2022/03/15 10:10:14;;;;;;;;;;;;;;;13.10;36.87;99444.39;1593206;88;20306;-83
2022/03/15 10:12:42;;;;;;;;;;;;;;;13.12;36.78;99437.30;1597553;89;24809;-83
2022/03/15 10:15:16;;;;;;;;;;;;;;;13.13;36.69;99434.58;1594232;89;22117;-83
2022/03/15 10:17:52;;;;;;;;;;;;;;;13.14;36.63;99432.33;1608423;89;25891;-83
2022/03/15 10:20:18;;;;;;;;;;;;;;;13.15;36.56;99423.95;1596223;89;24479;-83
2022/03/15 10:22:52;;;;;;;;;;;;;;;13.22;36.55;99427.41;1597725;89;20367;-83
2022/03/15 10:25:20;;;;;;;;;;;;;;;13.30;36.53;99421.66;1586889;88;24963;-83
2022/03/15 10:27:48;;;;;;;;;;;;;;;13.38;36.54;99411.47;1587363;89;22051;-84
2022/03/15 10:30:14;;;;;;;;;;;;;;;13.44;36.56;99407.59;1596427;89;26088;-83
2022/03/15 10:32:40;;;;;;;;;;;;;;;13.49;36.55;99401.09;1608624;89;24628;-83
2022/03/15 10:35:08;;;;;;;;;;;;;;;13.46;36.44;99400.45;1608621;89;20214;-83
2022/03/15 10:37:35;;;;;;;;;;;;;;;13.42;36.32;99397.17;1607165;89;25572;-83
2022/03/15 10:40:02;;;;;;;;;;;;;;;13.36;36.20;99385.27;1608803;89;22178;-83
2022/03/15 10:42:28;;;;;;;;;;;;;;;13.46;36.26;99384.69;1608567;88;26091;-82
2022/03/15 10:44:56;;;;;;;;;;;;;;;13.49;36.21;99378.73;1608833;89;20905;-83
2022/03/15 10:47:22;;;;;;;;;;;;;;;13.53;36.23;99376.27;1612035;88;20299;-83
2022/03/15 10:49:55;;;;;;;;;;;;;;;13.62;36.22;99373.51;1623069;88;20296;-83
2022/03/15 10:52:32;;;;;;;;;;;;;;;13.69;36.23;99372.16;1647878;84;23661;-83
2022/03/15 10:55:17;;;;;;;;;;;;;;;13.70;36.18;99369.88;1636286;86;26125;-83
2022/03/15 10:58:02;;;;;;;;;;;;;;;13.79;36.16;99366.64;1636227;87;24441;-82
2022/03/15 11:00:29;;;;;;;;;;;;;;;13.78;36.10;99355.27;1641485;87;20514;-83
2022/03/15 11:03:01;;;;;;;;;;;;;;;13.82;36.08;99351.47;1655020;86;25039;-83
2022/03/15 11:05:29;;;;;;;;;;;;;;;13.89;36.08;99342.69;1652469;86;22134;-83
2022/03/15 11:07:56;;;;;;;;;;;;;;;14.03;36.03;99335.14;1646453;86;26013;-83
2022/03/15 11:10:23;;;;;;;;;;;;;;;14.17;35.93;99336.36;1636026;87;24666;-83
2022/03/15 11:12:57;;;;;;;;;;;;;;;14.25;35.87;99332.69;1621067;88;20334;-83
2022/03/15 11:15:28;;;;;;;;;;;;;;;14.27;35.81;99328.64;1623027;88;25737;-83
2022/03/15 11:17:55;;;;;;;;;;;;;;;14.27;35.72;99333.44;1623008;88;22033;-83
2022/03/15 11:20:22;;;;;;;;;;;;;;;14.27;35.70;99326.86;1622763;88;26222;-83
2022/03/15 11:22:49;;;;;;;;;;;;;;;14.34;35.78;99322.84;1622909;88;24401;-83
2022/03/15 11:25:20;;;;;;;;;;;;;;;14.44;35.75;99324.38;1655230;86;20299;-83
2022/03/15 11:27:47;;;;;;;;;;;;;;;14.52;35.71;99315.43;1650095;86;25299;-83
2022/03/15 11:30:15;;;;;;;;;;;;;;;14.59;35.71;99311.41;1636293;87;22085;-82
2022/03/15 11:32:41;;;;;;;;;;;;;;;14.65;35.71;99307.87;1622874;88;26855;-82
2022/03/15 11:35:08;;;;;;;;;;;;;;;14.76;35.66;99302.29;1643471;86;24432;-83
2022/03/15 11:37:35;;;;;;;;;;;;;;;14.67;35.45;99293.75;1652372;85;20223;-83
2022/03/15 11:40:04;;;;;;;;;;;;;;;14.63;35.36;99291.32;1636078;87;25151;-83
2022/03/15 11:42:33;;;;;;;;;;;;;;;14.62;35.31;99288.31;1641560;87;22753;-83
2022/03/15 11:45:01;;;;;;;;;;;;;;;14.73;35.32;99282.77;1626280;87;25669;-82
2022/03/15 11:47:47;;;;;;;;;;;;;;;14.66;35.19;99270.51;1618988;87;24498;-83
2022/03/15 11:50:20;;;;;;;;;;;;;;;14.68;35.16;99276.95;1617400;87;20244;-83
2022/03/15 11:53:06;;;;;;;;;;;;;;;14.79;35.18;99275.70;1618860;88;24974;-84
2022/03/15 11:55:46;;;;;;;;;;;;;;;14.82;35.15;99268.91;1618991;87;22210;-83
2022/03/15 11:58:14;;;;;;;;;;;;;;;14.74;35.01;99261.55;1618993;87;26791;-83
2022/03/15 12:00:46;;;;;;;;;;;;;;;14.71;34.86;99259.16;1618675;87;25243;-82
2022/03/15 12:03:15;;;;;;;;;;;;;;;14.62;34.72;99252.75;1619225;88;20240;-83
2022/03/15 12:05:42;;;;;;;;;;;;;;;14.59;34.67;99246.40;1618937;88;25740;-83
2022/03/15 12:08:12;;;;;;;;;;;;;;;14.67;34.76;99239.73;1618037;88;21986;-83
2022/03/15 12:10:38;;;;;;;;;;;;;;;14.76;34.76;99232.46;1618921;87;25972;-83
2022/03/15 12:13:05;;;;;;;;;;;;;;;14.84;34.68;99228.28;1618685;88;24669;-83
2022/03/15 12:15:34;;;;;;;;;;;;;;;14.83;34.58;99226.63;1617811;88;20344;-83
2022/03/15 12:20:47;;;;;;;;;;;;;;;14.89;34.47;99224.02;1619218;88;22104;-83
2022/03/15 12:23:21;;;;;;;;;;;;;;;15.01;34.55;99211.20;1618888;87;25989;-83
2022/03/15 12:25:56;;;;;;;;;;;;;;;15.13;34.57;99206.33;1618754;88;24457;-83
2022/03/15 12:28:29;;;;;;;;;;;;;;;15.26;34.52;99208.41;1618877;88;20516;-83
2022/03/15 12:30:57;;;;;;;;;;;;;;;15.29;34.35;99205.52;1618048;88;24917;-82
2022/03/15 12:33:27;;;;;;;;;;;;;;;15.29;34.28;99203.36;1617934;87;21933;-83
2022/03/15 12:36:07;;;;;;;;;;;;;;;15.27;34.17;99196.91;1618751;87;26089;-83
2022/03/15 12:38:39;;;;;;;;;;;;;;;15.25;34.08;99188.73;1618787;88;25524;-82
2022/03/15 12:41:06;;;;;;;;;;;;;;;15.21;33.95;99178.91;1618887;88;20458;-82
2022/03/15 12:43:32;;;;;;;;;;;;;;;15.22;33.91;99176.61;1618929;88;25070;-82
2022/03/15 12:46:02;;;;;;;;;;;;;;;15.30;33.87;99170.76;1618641;87;22045;-83
2022/03/15 12:48:30;;;;;;;;;;;;;;;15.30;33.78;99166.80;1632837;86;26645;-82
2022/03/15 12:50:59;;;;;;;;;;;;;;;15.41;33.83;99166.81;1631265;87;24516;-83
2022/03/15 12:53:38;;;;;;;;;;;;;;;15.52;33.87;99159.41;1649009;86;20266;-83
2022/03/15 12:56:04;;;;;;;;;;;;;;;15.60;33.83;99155.19;1655140;86;25617;-83